sensor_id;sensor_type;location;lat;lon;timestamp;P1;durP1;ratioP1;P2;durP2;ratioP2
22646;SDS011;11490;42.726;23.268;2023-04-01T00:00:18;20.77;;;11.38;;
22646;SDS011;11490;42.726;23.268;2023-04-01T00:02:44;24.50;;;11.55;;
22646;SDS011;11490;42.726;23.268;2023-04-01T00:05:11;20.63;;;11.73;;
22646;SDS011;11490;42.726;23.268;2023-04-01T00:07:37;18.42;;;11.20;;
22646;SDS011;11490;42.726;23.268;2023-04-01T00:10:04;23.88;;;11.73;;
22646;SDS011;11490;42.726;23.268;2023-04-01T00:12:31;19.13;;;11.07;;
22646;SDS011;11490;42.726;23.268;2023-04-01T00:14:57;20.60;;;11.40;;
22646;SDS011;11490;42.726;23.268;2023-04-01T00:17:22;17.75;;;11.05;;
22646;SDS011;11490;42.726;23.268;2023-04-01T00:19:47;23.23;;;10.85;;
22646;SDS011;11490;42.726;23.268;2023-04-01T00:22:36;18.10;;;9.70;;
22646;SDS011;11490;42.726;23.268;2023-04-01T00:25:02;18.08;;;10.98;;
22646;SDS011;11490;42.726;23.268;2023-04-01T00:27:28;17.67;;;9.48;;
22646;SDS011;11490;42.726;23.268;2023-04-01T00:30:02;20.05;;;10.70;;
22646;SDS011;11490;42.726;23.268;2023-04-01T00:32:45;20.52;;;11.65;;
22646;SDS011;11490;42.726;23.268;2023-04-01T00:35:11;18.90;;;10.23;;
22646;SDS011;11490;42.726;23.268;2023-04-01T00:37:37;21.38;;;11.35;;
22646;SDS011;11490;42.726;23.268;2023-04-01T00:40:06;21.02;;;11.30;;
22646;SDS011;11490;42.726;23.268;2023-04-01T00:42:32;17.15;;;10.43;;
22646;SDS011;11490;42.726;23.268;2023-04-01T00:44:58;14.18;;;9.15;;
22646;SDS011;11490;42.726;23.268;2023-04-01T00:47:24;22.55;;;11.13;;
22646;SDS011;11490;42.726;23.268;2023-04-01T00:49:51;15.60;;;10.10;;
22646;SDS011;11490;42.726;23.268;2023-04-01T00:52:20;19.05;;;10.07;;
22646;SDS011;11490;42.726;23.268;2023-04-01T00:54:51;13.57;;;9.35;;
22646;SDS011;11490;42.726;23.268;2023-04-01T00:57:23;15.45;;;8.65;;
22646;SDS011;11490;42.726;23.268;2023-04-01T00:59:56;13.60;;;9.23;;
22646;SDS011;11490;42.726;23.268;2023-04-01T01:02:21;13.35;;;8.52;;
22646;SDS011;11490;42.726;23.268;2023-04-01T01:04:47;23.73;;;11.45;;
22646;SDS011;11490;42.726;23.268;2023-04-01T01:12:18;21.58;;;13.18;;
22646;SDS011;11490;42.726;23.268;2023-04-01T01:28:14;18.85;;;10.18;;
22646;SDS011;11490;42.726;23.268;2023-04-01T01:31:00;13.80;;;8.75;;
22646;SDS011;11490;42.726;23.268;2023-04-01T01:36:40;12.80;;;8.77;;
22646;SDS011;11490;42.726;23.268;2023-04-01T01:39:10;17.55;;;9.10;;
22646;SDS011;11490;42.726;23.268;2023-04-01T01:41:38;13.73;;;7.47;;
22646;SDS011;11490;42.726;23.268;2023-04-01T01:44:06;11.55;;;8.48;;
22646;SDS011;11490;42.726;23.268;2023-04-01T01:46:36;18.13;;;9.60;;
22646;SDS011;11490;42.726;23.268;2023-04-01T01:49:04;14.68;;;8.65;;
22646;SDS011;11490;42.726;23.268;2023-04-01T01:51:32;21.85;;;8.82;;
22646;SDS011;11490;42.726;23.268;2023-04-01T01:53:58;14.07;;;8.85;;
22646;SDS011;11490;42.726;23.268;2023-04-01T01:56:25;22.90;;;14.50;;
22646;SDS011;11490;42.726;23.268;2023-04-01T01:58:54;45.17;;;27.50;;
22646;SDS011;11490;42.726;23.268;2023-04-01T02:01:28;39.33;;;23.70;;
22646;SDS011;11490;42.726;23.268;2023-04-01T02:03:56;40.60;;;24.27;;
22646;SDS011;11490;42.726;23.268;2023-04-01T02:06:23;40.72;;;26.20;;
22646;SDS011;11490;42.726;23.268;2023-04-01T02:08:52;39.60;;;27.20;;
22646;SDS011;11490;42.726;23.268;2023-04-01T02:11:24;39.53;;;23.33;;
22646;SDS011;11490;42.726;23.268;2023-04-01T02:13:56;41.58;;;26.30;;
22646;SDS011;11490;42.726;23.268;2023-04-01T02:16:39;44.42;;;27.13;;
22646;SDS011;11490;42.726;23.268;2023-04-01T02:19:20;51.53;;;26.38;;
22646;SDS011;11490;42.726;23.268;2023-04-01T02:21:52;44.22;;;26.73;;
22646;SDS011;11490;42.726;23.268;2023-04-01T02:24:22;36.17;;;24.73;;
22646;SDS011;11490;42.726;23.268;2023-04-01T02:26:50;43.05;;;27.13;;
22646;SDS011;11490;42.726;23.268;2023-04-01T02:29:18;54.03;;;30.30;;
22646;SDS011;11490;42.726;23.268;2023-04-01T02:31:45;48.90;;;29.95;;
22646;SDS011;11490;42.726;23.268;2023-04-01T02:34:11;47.17;;;28.23;;
22646;SDS011;11490;42.726;23.268;2023-04-01T02:36:37;47.47;;;26.25;;
22646;SDS011;11490;42.726;23.268;2023-04-01T02:39:03;39.53;;;25.20;;
22646;SDS011;11490;42.726;23.268;2023-04-01T02:41:30;45.72;;;27.55;;
22646;SDS011;11490;42.726;23.268;2023-04-01T02:43:55;30.15;;;18.38;;
22646;SDS011;11490;42.726;23.268;2023-04-01T02:46:23;25.08;;;16.33;;
22646;SDS011;11490;42.726;23.268;2023-04-01T02:48:49;22.30;;;14.10;;
22646;SDS011;11490;42.726;23.268;2023-04-01T02:51:14;22.67;;;13.68;;
22646;SDS011;11490;42.726;23.268;2023-04-01T02:53:40;23.02;;;12.98;;
22646;SDS011;11490;42.726;23.268;2023-04-01T02:56:05;21.65;;;12.00;;
22646;SDS011;11490;42.726;23.268;2023-04-01T02:58:31;22.17;;;12.85;;
22646;SDS011;11490;42.726;23.268;2023-04-01T03:00:56;22.25;;;11.15;;
22646;SDS011;11490;42.726;23.268;2023-04-01T03:03:22;20.95;;;11.90;;
22646;SDS011;11490;42.726;23.268;2023-04-01T03:05:47;20.27;;;11.07;;
22646;SDS011;11490;42.726;23.268;2023-04-01T03:08:13;20.75;;;10.70;;
22646;SDS011;11490;42.726;23.268;2023-04-01T03:10:38;17.13;;;8.70;;
22646;SDS011;11490;42.726;23.268;2023-04-01T03:13:04;17.13;;;10.23;;
22646;SDS011;11490;42.726;23.268;2023-04-01T03:15:29;18.38;;;8.60;;
22646;SDS011;11490;42.726;23.268;2023-04-01T03:17:55;14.95;;;7.88;;
22646;SDS011;11490;42.726;23.268;2023-04-01T03:20:20;20.60;;;7.90;;
22646;SDS011;11490;42.726;23.268;2023-04-01T03:22:46;18.35;;;8.02;;
22646;SDS011;11490;42.726;23.268;2023-04-01T03:25:11;15.38;;;8.38;;
22646;SDS011;11490;42.726;23.268;2023-04-01T03:27:49;12.20;;;8.38;;
22646;SDS011;11490;42.726;23.268;2023-04-01T03:30:18;15.02;;;8.65;;
22646;SDS011;11490;42.726;23.268;2023-04-01T03:32:43;15.48;;;8.90;;
22646;SDS011;11490;42.726;23.268;2023-04-01T03:35:09;15.88;;;8.50;;
22646;SDS011;11490;42.726;23.268;2023-04-01T03:37:35;21.77;;;8.45;;
22646;SDS011;11490;42.726;23.268;2023-04-01T03:40:00;11.43;;;7.75;;
22646;SDS011;11490;42.726;23.268;2023-04-01T03:42:26;12.80;;;7.57;;
22646;SDS011;11490;42.726;23.268;2023-04-01T03:44:51;12.20;;;7.60;;
22646;SDS011;11490;42.726;23.268;2023-04-01T03:47:16;10.73;;;7.03;;
22646;SDS011;11490;42.726;23.268;2023-04-01T03:49:42;17.50;;;8.30;;
22646;SDS011;11490;42.726;23.268;2023-04-01T03:52:08;17.30;;;8.90;;
22646;SDS011;11490;42.726;23.268;2023-04-01T03:54:35;11.07;;;7.85;;
22646;SDS011;11490;42.726;23.268;2023-04-01T03:57:01;15.43;;;7.50;;
22646;SDS011;11490;42.726;23.268;2023-04-01T03:59:26;13.32;;;8.57;;
22646;SDS011;11490;42.726;23.268;2023-04-01T04:01:55;14.48;;;8.23;;
22646;SDS011;11490;42.726;23.268;2023-04-01T04:04:26;15.13;;;8.35;;
22646;SDS011;11490;42.726;23.268;2023-04-01T04:06:58;20.50;;;9.90;;
22646;SDS011;11490;42.726;23.268;2023-04-01T04:09:24;14.88;;;8.93;;
22646;SDS011;11490;42.726;23.268;2023-04-01T04:11:50;18.65;;;10.00;;
22646;SDS011;11490;42.726;23.268;2023-04-01T04:14:15;14.60;;;9.45;;
22646;SDS011;11490;42.726;23.268;2023-04-01T04:16:41;20.13;;;9.52;;
22646;SDS011;11490;42.726;23.268;2023-04-01T04:19:06;15.38;;;9.82;;
22646;SDS011;11490;42.726;23.268;2023-04-01T04:21:32;18.50;;;10.40;;
22646;SDS011;11490;42.726;23.268;2023-04-01T04:24:01;15.80;;;9.13;;
22646;SDS011;11490;42.726;23.268;2023-04-01T04:26:29;16.15;;;8.75;;
22646;SDS011;11490;42.726;23.268;2023-04-01T04:28:55;13.60;;;9.50;;
22646;SDS011;11490;42.726;23.268;2023-04-01T04:31:22;15.63;;;9.90;;
22646;SDS011;11490;42.726;23.268;2023-04-01T04:33:49;14.63;;;9.55;;
22646;SDS011;11490;42.726;23.268;2023-04-01T04:36:19;21.30;;;10.23;;
22646;SDS011;11490;42.726;23.268;2023-04-01T04:38:48;17.52;;;11.45;;
22646;SDS011;11490;42.726;23.268;2023-04-01T04:41:42;17.17;;;9.23;;
22646;SDS011;11490;42.726;23.268;2023-04-01T04:44:11;16.48;;;9.73;;
22646;SDS011;11490;42.726;23.268;2023-04-01T04:46:48;14.73;;;8.50;;
22646;SDS011;11490;42.726;23.268;2023-04-01T04:49:43;13.25;;;7.50;;
22646;SDS011;11490;42.726;23.268;2023-04-01T04:52:13;13.45;;;8.02;;
22646;SDS011;11490;42.726;23.268;2023-04-01T04:54:42;12.32;;;7.75;;
22646;SDS011;11490;42.726;23.268;2023-04-01T04:57:53;22.08;;;8.40;;
22646;SDS011;11490;42.726;23.268;2023-04-01T05:00:34;11.52;;;7.78;;
22646;SDS011;11490;42.726;23.268;2023-04-01T05:03:02;14.70;;;8.13;;
22646;SDS011;11490;42.726;23.268;2023-04-01T05:05:27;15.70;;;9.13;;
22646;SDS011;11490;42.726;23.268;2023-04-01T05:07:53;12.82;;;7.80;;
22646;SDS011;11490;42.726;23.268;2023-04-01T05:10:18;16.60;;;9.65;;
22646;SDS011;11490;42.726;23.268;2023-04-01T05:12:45;14.98;;;9.52;;
22646;SDS011;11490;42.726;23.268;2023-04-01T05:15:11;18.13;;;11.65;;
22646;SDS011;11490;42.726;23.268;2023-04-01T05:17:36;14.32;;;8.43;;
22646;SDS011;11490;42.726;23.268;2023-04-01T05:20:02;21.10;;;8.18;;
22646;SDS011;11490;42.726;23.268;2023-04-01T05:22:28;17.63;;;9.00;;
22646;SDS011;11490;42.726;23.268;2023-04-01T05:24:53;15.05;;;8.75;;
22646;SDS011;11490;42.726;23.268;2023-04-01T05:27:19;26.67;;;12.45;;
22646;SDS011;11490;42.726;23.268;2023-04-01T05:29:45;33.08;;;14.60;;
22646;SDS011;11490;42.726;23.268;2023-04-01T05:32:10;26.52;;;13.35;;
22646;SDS011;11490;42.726;23.268;2023-04-01T05:34:36;22.58;;;12.32;;
22646;SDS011;11490;42.726;23.268;2023-04-01T05:37:01;38.60;;;11.90;;
22646;SDS011;11490;42.726;23.268;2023-04-01T05:39:26;23.25;;;11.32;;
22646;SDS011;11490;42.726;23.268;2023-04-01T05:41:52;32.13;;;16.88;;
22646;SDS011;11490;42.726;23.268;2023-04-01T05:44:17;29.25;;;15.80;;
22646;SDS011;11490;42.726;23.268;2023-04-01T05:46:43;21.45;;;10.77;;
22646;SDS011;11490;42.726;23.268;2023-04-01T05:49:10;13.55;;;8.13;;
22646;SDS011;11490;42.726;23.268;2023-04-01T05:51:36;16.10;;;8.48;;
22646;SDS011;11490;42.726;23.268;2023-04-01T05:54:04;22.27;;;10.65;;
22646;SDS011;11490;42.726;23.268;2023-04-01T05:56:34;19.52;;;9.75;;
22646;SDS011;11490;42.726;23.268;2023-04-01T05:58:59;15.30;;;9.30;;
22646;SDS011;11490;42.726;23.268;2023-04-01T06:01:24;14.50;;;7.22;;
22646;SDS011;11490;42.726;23.268;2023-04-01T06:03:50;11.85;;;7.57;;
22646;SDS011;11490;42.726;23.268;2023-04-01T06:06:22;11.07;;;5.95;;
22646;SDS011;11490;42.726;23.268;2023-04-01T06:08:49;16.73;;;6.45;;
22646;SDS011;11490;42.726;23.268;2023-04-01T06:14:17;9.05;;;4.75;;
22646;SDS011;11490;42.726;23.268;2023-04-01T06:17:07;9.90;;;5.55;;
22646;SDS011;11490;42.726;23.268;2023-04-01T06:20:09;10.20;;;5.80;;
22646;SDS011;11490;42.726;23.268;2023-04-01T06:22:56;13.27;;;5.82;;
22646;SDS011;11490;42.726;23.268;2023-04-01T06:28:39;8.80;;;4.35;;
22646;SDS011;11490;42.726;23.268;2023-04-01T06:47:50;12.65;;;5.15;;
22646;SDS011;11490;42.726;23.268;2023-04-01T06:55:56;12.05;;;4.85;;
22646;SDS011;11490;42.726;23.268;2023-04-01T06:58:29;12.32;;;6.80;;
22646;SDS011;11490;42.726;23.268;2023-04-01T07:01:01;22.08;;;11.40;;
22646;SDS011;11490;42.726;23.268;2023-04-01T07:03:39;9.32;;;5.65;;
22646;SDS011;11490;42.726;23.268;2023-04-01T07:06:16;15.95;;;9.63;;
22646;SDS011;11490;42.726;23.268;2023-04-01T07:09:02;10.23;;;4.50;;
22646;SDS011;11490;42.726;23.268;2023-04-01T07:11:32;9.63;;;5.45;;
22646;SDS011;11490;42.726;23.268;2023-04-01T07:16:48;23.02;;;10.55;;
22646;SDS011;11490;42.726;23.268;2023-04-01T07:19:32;17.58;;;8.07;;
22646;SDS011;11490;42.726;23.268;2023-04-01T07:22:05;7.43;;;5.32;;
22646;SDS011;11490;42.726;23.268;2023-04-01T07:24:41;8.85;;;5.35;;
22646;SDS011;11490;42.726;23.268;2023-04-01T07:27:10;10.35;;;5.15;;
22646;SDS011;11490;42.726;23.268;2023-04-01T07:29:37;22.20;;;12.98;;
22646;SDS011;11490;42.726;23.268;2023-04-01T07:42:57;7.20;;;4.60;;
22646;SDS011;11490;42.726;23.268;2023-04-01T07:48:29;14.40;;;8.45;;
22646;SDS011;11490;42.726;23.268;2023-04-01T07:51:07;10.23;;;5.90;;
22646;SDS011;11490;42.726;23.268;2023-04-01T08:04:51;14.55;;;5.90;;
22646;SDS011;11490;42.726;23.268;2023-04-01T08:10:32;11.80;;;5.45;;
22646;SDS011;11490;42.726;23.268;2023-04-01T08:16:09;11.20;;;6.00;;
22646;SDS011;11490;42.726;23.268;2023-04-01T08:18:46;14.77;;;7.65;;
22646;SDS011;11490;42.726;23.268;2023-04-01T08:21:25;7.88;;;4.38;;
22646;SDS011;11490;42.726;23.268;2023-04-01T08:23:57;6.22;;;4.15;;
22646;SDS011;11490;42.726;23.268;2023-04-01T08:31:40;7.10;;;4.38;;
22646;SDS011;11490;42.726;23.268;2023-04-01T08:34:25;4.63;;;3.50;;
22646;SDS011;11490;42.726;23.268;2023-04-01T08:37:02;7.22;;;4.28;;
22646;SDS011;11490;42.726;23.268;2023-04-01T08:39:43;13.40;;;4.00;;
22646;SDS011;11490;42.726;23.268;2023-04-01T09:05:26;4.18;;;2.90;;
22646;SDS011;11490;42.726;23.268;2023-04-01T09:08:12;9.93;;;4.30;;
22646;SDS011;11490;42.726;23.268;2023-04-01T09:10:56;7.78;;;3.63;;
22646;SDS011;11490;42.726;23.268;2023-04-01T09:19:17;9.18;;;2.97;;
22646;SDS011;11490;42.726;23.268;2023-04-01T09:38:40;7.13;;;3.25;;
22646;SDS011;11490;42.726;23.268;2023-04-01T09:41:07;6.53;;;2.38;;
22646;SDS011;11490;42.726;23.268;2023-04-01T09:49:38;4.22;;;3.28;;
22646;SDS011;11490;42.726;23.268;2023-04-01T10:00:49;10.40;;;2.58;;
22646;SDS011;11490;42.726;23.268;2023-04-01T10:03:43;6.85;;;3.58;;
22646;SDS011;11490;42.726;23.268;2023-04-01T11:29:00;9.40;;;4.18;;
22646;SDS011;11490;42.726;23.268;2023-04-01T11:39:29;3.22;;;2.00;;
22646;SDS011;11490;42.726;23.268;2023-04-01T11:44:47;6.00;;;2.58;;
22646;SDS011;11490;42.726;23.268;2023-04-01T11:50:40;3.72;;;2.10;;
22646;SDS011;11490;42.726;23.268;2023-04-01T11:58:52;5.93;;;2.60;;
22646;SDS011;11490;42.726;23.268;2023-04-01T12:06:52;7.85;;;3.40;;
22646;SDS011;11490;42.726;23.268;2023-04-01T12:09:25;5.40;;;3.78;;
22646;SDS011;11490;42.726;23.268;2023-04-01T12:14:50;5.05;;;3.03;;
22646;SDS011;11490;42.726;23.268;2023-04-01T12:17:31;6.15;;;3.70;;
22646;SDS011;11490;42.726;23.268;2023-04-01T12:23:20;4.18;;;3.28;;
22646;SDS011;11490;42.726;23.268;2023-04-01T12:42:54;3.78;;;3.17;;
22646;SDS011;11490;42.726;23.268;2023-04-01T12:45:57;7.53;;;4.30;;
22646;SDS011;11490;42.726;23.268;2023-04-01T12:54:27;4.80;;;3.30;;
22646;SDS011;11490;42.726;23.268;2023-04-01T13:14:33;5.05;;;3.78;;
22646;SDS011;11490;42.726;23.268;2023-04-01T13:17:20;22.35;;;10.75;;
22646;SDS011;11490;42.726;23.268;2023-04-01T13:19:58;18.85;;;6.85;;
22646;SDS011;11490;42.726;23.268;2023-04-01T13:22:50;10.13;;;6.70;;
22646;SDS011;11490;42.726;23.268;2023-04-01T13:30:49;8.02;;;3.50;;
22646;SDS011;11490;42.726;23.268;2023-04-01T13:33:25;4.32;;;2.83;;
22646;SDS011;11490;42.726;23.268;2023-04-01T13:44:29;10.20;;;3.35;;
22646;SDS011;11490;42.726;23.268;2023-04-01T13:58:22;3.85;;;3.00;;
22646;SDS011;11490;42.726;23.268;2023-04-01T14:04:29;3.45;;;2.15;;
22646;SDS011;11490;42.726;23.268;2023-04-01T14:26:11;6.55;;;3.00;;
22646;SDS011;11490;42.726;23.268;2023-04-01T14:28:47;8.05;;;4.07;;
22646;SDS011;11490;42.726;23.268;2023-04-01T14:34:00;6.22;;;3.08;;
22646;SDS011;11490;42.726;23.268;2023-04-01T14:36:51;5.20;;;3.35;;
22646;SDS011;11490;42.726;23.268;2023-04-01T14:42:03;4.35;;;2.80;;
22646;SDS011;11490;42.726;23.268;2023-04-01T14:50:03;4.00;;;2.53;;
22646;SDS011;11490;42.726;23.268;2023-04-01T14:52:36;6.65;;;2.83;;
22646;SDS011;11490;42.726;23.268;2023-04-01T14:55:17;4.95;;;3.00;;
22646;SDS011;11490;42.726;23.268;2023-04-01T14:57:59;6.85;;;3.15;;
22646;SDS011;11490;42.726;23.268;2023-04-01T15:01:07;5.78;;;3.30;;
22646;SDS011;11490;42.726;23.268;2023-04-01T15:03:36;5.13;;;2.92;;
22646;SDS011;11490;42.726;23.268;2023-04-01T15:11:52;4.72;;;2.80;;
22646;SDS011;11490;42.726;23.268;2023-04-01T15:19:42;9.48;;;3.78;;
22646;SDS011;11490;42.726;23.268;2023-04-01T15:22:26;6.50;;;2.97;;
22646;SDS011;11490;42.726;23.268;2023-04-01T15:33:06;8.25;;;5.80;;
22646;SDS011;11490;42.726;23.268;2023-04-01T15:38:33;7.60;;;4.80;;
22646;SDS011;11490;42.726;23.268;2023-04-01T15:43:48;30.70;;;7.70;;
22646;SDS011;11490;42.726;23.268;2023-04-01T15:51:48;9.35;;;1.60;;
22646;SDS011;11490;42.726;23.268;2023-04-01T15:54:38;2.38;;;1.58;;
22646;SDS011;11490;42.726;23.268;2023-04-01T16:00:06;4.47;;;2.42;;
22646;SDS011;11490;42.726;23.268;2023-04-01T16:02:36;5.05;;;2.30;;
22646;SDS011;11490;42.726;23.268;2023-04-01T16:08:09;3.45;;;3.08;;
22646;SDS011;11490;42.726;23.268;2023-04-01T16:10:48;4.82;;;2.92;;
22646;SDS011;11490;42.726;23.268;2023-04-01T16:16:00;4.15;;;2.92;;
22646;SDS011;11490;42.726;23.268;2023-04-01T16:19:08;3.50;;;2.72;;
22646;SDS011;11490;42.726;23.268;2023-04-01T16:21:24;4.53;;;3.40;;
22646;SDS011;11490;42.726;23.268;2023-04-01T16:23:57;3.67;;;2.72;;
22646;SDS011;11490;42.726;23.268;2023-04-01T16:26:37;4.40;;;2.83;;
22646;SDS011;11490;42.726;23.268;2023-04-01T16:29:17;4.75;;;3.08;;
22646;SDS011;11490;42.726;23.268;2023-04-01T16:34:39;4.13;;;2.97;;
22646;SDS011;11490;42.726;23.268;2023-04-01T16:37:15;3.60;;;2.90;;
22646;SDS011;11490;42.726;23.268;2023-04-01T16:39:47;3.03;;;2.30;;
22646;SDS011;11490;42.726;23.268;2023-04-01T16:42:20;3.58;;;2.78;;
22646;SDS011;11490;42.726;23.268;2023-04-01T16:47:19;3.75;;;2.60;;
22646;SDS011;11490;42.726;23.268;2023-04-01T16:50:27;2.72;;;2.25;;
22646;SDS011;11490;42.726;23.268;2023-04-01T16:58:34;3.08;;;2.33;;
22646;SDS011;11490;42.726;23.268;2023-04-01T17:01:09;2.33;;;2.13;;
22646;SDS011;11490;42.726;23.268;2023-04-01T17:03:45;4.18;;;2.70;;
22646;SDS011;11490;42.726;23.268;2023-04-01T17:12:23;2.65;;;2.20;;
22646;SDS011;11490;42.726;23.268;2023-04-01T17:15:19;2.63;;;2.10;;
22646;SDS011;11490;42.726;23.268;2023-04-01T17:20:40;3.50;;;2.95;;
22646;SDS011;11490;42.726;23.268;2023-04-01T18:00:33;3.00;;;2.50;;
22646;SDS011;11490;42.726;23.268;2023-04-01T18:11:42;3.17;;;2.63;;
22646;SDS011;11490;42.726;23.268;2023-04-01T18:17:24;5.47;;;3.85;;
22646;SDS011;11490;42.726;23.268;2023-04-01T18:20:07;8.73;;;4.80;;
22646;SDS011;11490;42.726;23.268;2023-04-01T18:22:43;6.40;;;3.75;;
22646;SDS011;11490;42.726;23.268;2023-04-01T18:25:15;4.38;;;3.47;;
22646;SDS011;11490;42.726;23.268;2023-04-01T18:27:47;4.80;;;3.22;;
22646;SDS011;11490;42.726;23.268;2023-04-01T18:30:21;3.45;;;2.97;;
22646;SDS011;11490;42.726;23.268;2023-04-01T18:33:04;3.97;;;3.08;;
22646;SDS011;11490;42.726;23.268;2023-04-01T18:38:36;4.35;;;3.83;;
22646;SDS011;11490;42.726;23.268;2023-04-01T18:41:14;5.07;;;3.55;;
22646;SDS011;11490;42.726;23.268;2023-04-01T18:51:59;5.13;;;3.00;;
22646;SDS011;11490;42.726;23.268;2023-04-01T18:54:39;3.05;;;2.60;;
22646;SDS011;11490;42.726;23.268;2023-04-01T18:57:13;2.72;;;2.42;;
22646;SDS011;11490;42.726;23.268;2023-04-01T18:59:57;4.32;;;3.28;;
22646;SDS011;11490;42.726;23.268;2023-04-01T19:02:36;6.53;;;3.88;;
22646;SDS011;11490;42.726;23.268;2023-04-01T19:21:28;5.53;;;3.50;;
22646;SDS011;11490;42.726;23.268;2023-04-01T19:26:59;4.00;;;2.78;;
22646;SDS011;11490;42.726;23.268;2023-04-01T19:38:30;5.40;;;3.20;;
22646;SDS011;11490;42.726;23.268;2023-04-01T19:41:18;3.30;;;2.75;;
22646;SDS011;11490;42.726;23.268;2023-04-01T19:52:31;4.22;;;3.10;;
22646;SDS011;11490;42.726;23.268;2023-04-01T19:55:18;6.18;;;4.07;;
22646;SDS011;11490;42.726;23.268;2023-04-01T20:00:36;8.70;;;5.32;;
22646;SDS011;11490;42.726;23.268;2023-04-01T20:06:04;14.57;;;5.57;;
22646;SDS011;11490;42.726;23.268;2023-04-01T20:14:30;2.10;;;1.90;;
22646;SDS011;11490;42.726;23.268;2023-04-01T20:25:22;2.40;;;2.17;;
22646;SDS011;11490;42.726;23.268;2023-04-01T20:28:12;3.65;;;3.25;;
22646;SDS011;11490;42.726;23.268;2023-04-01T20:51:11;2.75;;;2.28;;
22646;SDS011;11490;42.726;23.268;2023-04-01T21:07:34;3.70;;;2.25;;
22646;SDS011;11490;42.726;23.268;2023-04-01T21:18:47;2.88;;;2.53;;
22646;SDS011;11490;42.726;23.268;2023-04-01T21:43:49;5.03;;;1.85;;
22646;SDS011;11490;42.726;23.268;2023-04-01T22:09:07;2.25;;;2.05;;
22646;SDS011;11490;42.726;23.268;2023-04-01T22:11:43;2.10;;;1.83;;
22646;SDS011;11490;42.726;23.268;2023-04-01T22:17:12;5.65;;;2.75;;
22646;SDS011;11490;42.726;23.268;2023-04-01T22:20:27;5.20;;;3.13;;
22646;SDS011;11490;42.726;23.268;2023-04-01T22:22:52;5.18;;;3.30;;
22646;SDS011;11490;42.726;23.268;2023-04-01T22:25:29;5.45;;;3.50;;
22646;SDS011;11490;42.726;23.268;2023-04-01T22:28:12;2.63;;;2.05;;
22646;SDS011;11490;42.726;23.268;2023-04-01T22:31:02;2.40;;;2.08;;
22646;SDS011;11490;42.726;23.268;2023-04-01T22:33:32;2.80;;;2.60;;
22646;SDS011;11490;42.726;23.268;2023-04-01T22:44:18;3.38;;;2.60;;
22646;SDS011;11490;42.726;23.268;2023-04-01T22:47:16;2.28;;;2.08;;
22646;SDS011;11490;42.726;23.268;2023-04-01T22:55:44;2.33;;;2.13;;
22646;SDS011;11490;42.726;23.268;2023-04-01T22:58:13;2.80;;;2.05;;
22646;SDS011;11490;42.726;23.268;2023-04-01T23:06:00;2.22;;;2.00;;
22646;SDS011;11490;42.726;23.268;2023-04-01T23:11:02;2.67;;;1.85;;
22646;SDS011;11490;42.726;23.268;2023-04-01T23:13:32;2.55;;;2.20;;
22646;SDS011;11490;42.726;23.268;2023-04-01T23:16:03;4.10;;;1.98;;
22646;SDS011;11490;42.726;23.268;2023-04-01T23:18:37;2.40;;;2.20;;
22646;SDS011;11490;42.726;23.268;2023-04-01T23:21:29;2.35;;;1.83;;
22646;SDS011;11490;42.726;23.268;2023-04-01T23:24:06;2.22;;;1.80;;
22646;SDS011;11490;42.726;23.268;2023-04-01T23:26:37;2.08;;;1.88;;
22646;SDS011;11490;42.726;23.268;2023-04-01T23:29:12;2.05;;;1.85;;
22646;SDS011;11490;42.726;23.268;2023-04-01T23:31:41;1.70;;;1.60;;
22646;SDS011;11490;42.726;23.268;2023-04-01T23:34:20;3.47;;;2.42;;
22646;SDS011;11490;42.726;23.268;2023-04-01T23:36:48;1.90;;;1.80;;
22646;SDS011;11490;42.726;23.268;2023-04-01T23:39:30;2.67;;;1.98;;
22646;SDS011;11490;42.726;23.268;2023-04-01T23:41:59;2.20;;;2.00;;
22646;SDS011;11490;42.726;23.268;2023-04-01T23:44:28;2.92;;;2.22;;
22646;SDS011;11490;42.726;23.268;2023-04-01T23:46:54;2.05;;;1.80;;
22646;SDS011;11490;42.726;23.268;2023-04-01T23:49:23;2.10;;;1.90;;
22646;SDS011;11490;42.726;23.268;2023-04-01T23:51:59;2.67;;;1.80;;
22646;SDS011;11490;42.726;23.268;2023-04-01T23:56:58;4.15;;;2.53;;
22646;SDS011;11490;42.726;23.268;2023-04-01T23:59:28;5.13;;;2.10;;
